Michael Klein

Olheiro-Chefe - VfB Stuttgart
4 Abr 2027
Domingo
Processo

Personalidade

Adaptabilidade (18) Ambição (17) Controvérsia (18) Lealdade (8) Pressão (14) Profissionalismo (20) Espírito Esportivo (11) Temperamento (6)

Perfil

Estilo de Treinamento Democrático
Licença Continental C
Determinação 11
Gestão de Pessoas 8
Motivação 15
Disciplina 9
Satisfação no Trabalho
100%
Fadiga
0%
Função Olheiro-Chefe
Salário 42.9K p/s
Contrato 14.03.2028

Desempenho

Comportamento Bom
Eficácia do Treinamento
56%
Desenvolvimento do Jogador
40%
Prevenção de Lesões
65%
Implementação Tática
75%

Eventos Recentes

Avaliou um jogador agora
Participou de uma reunião de recrutamento agora
Recomendou um alvo de transferência agora
Avaliou um jogador agora
Avaliou um jogador agora
Avaliou um jogador agora
Avaliou um jogador 7d atrás
Avaliou um jogador 7d atrás

Monitorando agora

150
Jogador Clube Status Habilidade Confiança Observado Última observação Último voto
Taiwo Awoniyi Coventry City Ativo 141 / 135 40% 4 02.04.2027 -
Yoane Wissa Newcastle United Ativo 140 / 137 40% 2 02.04.2027 -
Luca Orellano Monterrey Ativo 142 / 130 40% 4 02.04.2027 -
Cesar Corona Veracruz Ativo 133 / 141 40% 8 01.04.2027 -
Diego López Valencia Ativo 134 / 136 40% 3 01.04.2027 -
Hany Mukhtar Hamburger SV Ativo 136 / 127 40% 4 31.03.2027 -
Lucas Boyé Alavés Ativo 143 / 135 40% 10 31.03.2027 -
Soufiane Rahimi Al Ain Ativo 138 / 135 40% 4 31.03.2027 -
Ferran Jutglà Celta Ativo 135 / 140 40% 2 31.03.2027 -
Agustín Palavecino Cruz Azul Ativo 131 / 147 40% 3 31.03.2027 -
Martin Terrier Bayer Leverkusen Ativo 144 / 140 40% 9 30.03.2027 -
Pepê Porto Ativo 146 / 144 40% 2 30.03.2027 -
Che Adams Torino Ativo 143 / 135 40% 2 29.03.2027 -
Isi Palazón Rayo Vallecano Ativo 142 / 139 40% 1 28.03.2027 -
Haissem Hassan Bloemfontein Celtic Ativo 127 / 130 40% 2 26.03.2027 -
Alejandro Zendejas Club America Ativo 140 / 142 40% 1 26.03.2027 -
Marco Asensio Fenerbahce Ativo 154 / 154 40% 1 26.03.2027 -
Andrés Martín Racing Santander Ativo 138 / 134 40% 4 25.03.2027 -
Marcel Ruiz Toluca Ativo 149 / 154 40% 2 25.03.2027 -
Zizo Al Ahly Ativo 143 / 136 40% 1 25.03.2027 -
Michy Fellaini KV Oostende Ativo 133 / 142 40% 4 24.03.2027 -
Yuri Alberto Corinthians Ativo 140 / 142 40% 5 24.03.2027 -
Odsonne Édouard RC Lens Ativo 137 / 136 40% 1 23.03.2027 -
Esteban Lepaul Stade Rennais Ativo 135 / 136 40% 2 20.03.2027 -
Haris Tabaković Red Bull Salzburg Ativo 136 / 138 40% 1 20.03.2027 -
Musa Barrow Al-Khaleej Ativo 140 / 141 40% 5 19.03.2027 -
Gonzalo Plata Dinamo Moscow Ativo 140 / 140 40% 7 18.03.2027 -
Abel Ruiz Girona Ativo 138 / 140 40% 1 18.03.2027 -
Iñaki Williams Athletic Bilbao Rejeitado 161 / 158 40% 5 17.03.2027 Rejeitar
Leandro Trossard Besiktas Ativo 149 / 156 40% 7 17.03.2027 -
Alexander Sørloth Atlético Madrid Ativo 150 / 151 40% 3 17.03.2027 -
Ricardo Horta Braga Ativo 146 / 144 40% 4 16.03.2027 -
Steven Bergwijn Al-Ittihad Ativo 147 / 159 40% 2 13.03.2027 -
Santiago Mina VfL Wolfsburg Ativo 149 / 137 40% 3 12.03.2027 -
Lorenzo Colombo Genoa Ativo 132 / 133 40% 2 12.03.2027 -
Zakaria Aboukhlal Torino Ativo 139 / 132 40% 1 11.03.2027 -
Umar Sadiq Valencia Ativo 137 / 144 40% 2 10.03.2027 -
Tim Kleindienst Borussia Mönchengladbach Ativo 154 / 156 40% 6 10.03.2027 -
Jorge De Frutos Rayo Vallecano Ativo 145 / 153 40% 4 09.03.2027 -
Hamza Igamane LOSC Lille Ativo 143 / 140 40% 1 09.03.2027 -
Jean-Luc Morin Tours Rejeitado 142 / 144 40% 1 08.03.2027 Mais informações
Adama Traoré Deportivo La Coruña Ativo 138 / 144 40% 2 05.03.2027 -
Carlos Rodríguez Cruz Azul Ativo 144 / 138 40% 1 05.03.2027 -
Roberto Alvarado Guadalajara Ativo 152 / 149 40% 1 05.03.2027 -
Kerem Aktürkoğlu Fenerbahce Ativo 147 / 130 40% 4 27.02.2027 -
Luka Jović AEK Ativo 144 / 137 40% 1 27.02.2027 -
Malcom Al Jazira Ativo 143 / 144 40% 1 27.02.2027 -
Sebastián Córdova Pumas UNAM Ativo 126 / 140 40% 1 27.02.2027 -
Orbelín Pineda Monterrey Ativo 132 / 129 40% 1 25.02.2027 -
Óliver Monterrey Ativo 148 / 124 40% 1 25.02.2027 -
Marcos Llorente Atlético Madrid Ativo 160 / 156 40% 2 24.02.2027 -
Galeno Al-Ahli Ativo 141 / 145 40% 1 22.02.2027 -
Deniz Undav Manchester United Ativo 157 / 160 40% 1 19.02.2027 -
Nicolás Ibáñez Cruz Azul Ativo 135 / 124 40% 1 17.02.2027 -
Jorge Pascual Granada Ativo 134 / 135 40% 4 16.02.2027 -
Ludovic Ajorque Stade Brestois Ativo 141 / 141 40% 1 15.02.2027 -
Luiz Henrique Zenit Ativo 154 / 133 40% 1 12.02.2027 -
Toni Martínez Alavés Ativo 138 / 138 40% 3 10.02.2027 -
Karl Etta Eyong Levante Ativo 147 / 141 40% 2 08.02.2027 -
Yuito Suzuki SC Freiburg Ativo 134 / 141 40% 2 06.02.2027 -
Jason Januzaj Mouscron Rejeitado 147 / 142 40% 3 05.02.2027 Rejeitar
Ernest Nuamah Olympique Lyonnais Ativo 133 / 135 40% 1 04.02.2027 -
José Manuel López Palmeiras Ativo 136 / 131 40% 2 02.02.2027 -
Paulinho Palmeiras Ativo 139 / 149 40% 1 01.02.2027 -
Mohamed-Ali Cho Hull City Ativo 134 / 130 40% 1 01.02.2027 -
George Hirst Stoke City Ativo 139 / 135 40% 2 11.01.2027 -
Ibrahim Maza Bayer Leverkusen Perdido 146 / 148 76% 1 11.01.2027 Aprovar
Jonathan Dubasin Osasuna Ativo 139 / 146 40% 1 11.01.2027 -
Đorđe Petrović Bournemouth Ativo 152 / 154 40% 5 03.01.2027 -
Robin Roefs Sunderland Ativo 147 / 140 40% 8 03.01.2027 -
Ruslan Neshcheret Dynamo Kyiv Ativo 116 / 132 40% 1 03.01.2027 -
Karl Hein Werder Bremen Ativo 132 / 147 40% 7 02.01.2027 -
Mads Hermansen West Ham United Ativo 137 / 134 40% 1 02.01.2027 -
Kaio Jorge Cruzeiro Ativo 138 / 140 68% 1 01.01.2027 Aprovar
Carl Rushworth Coventry City Ativo 136 / 141 40% 11 30.12.2026 -
Christian Walton Ipswich Town Ativo 133 / 134 40% 12 30.12.2026 -
Radek Vítek Middlesbrough Ativo 138 / 129 40% 10 30.12.2026 -
Álvaro Fernández Sevilla Ativo 142 / 144 40% 7 28.12.2026 -
David Raya Arsenal Ativo 161 / 154 40% 9 28.12.2026 -
Iñaki Peña Panathinaikos Ativo 139 / 149 40% 1 28.12.2026 -
Jordan Pickford Everton Ativo 153 / 161 40% 10 26.12.2026 -
Alfonso Herrero Málaga Ativo 127 / 122 40% 6 25.12.2026 -
James Trafford Leeds United Ativo 143 / 142 40% 5 25.12.2026 -
Álex Remiro Real Sociedad Ativo 153 / 150 40% 6 24.12.2026 -
Marvin Schwäbe Köln Ativo 147 / 135 40% 9 23.12.2026 -
Timon Wellenreuther VfL Wolfsburg Ativo 135 / 133 40% 4 23.12.2026 -
Mio Backhaus SC Freiburg Ativo 127 / 136 40% 6 22.12.2026 -
Dean Henderson Crystal Palace Ativo 150 / 144 40% 6 21.12.2026 -
Hugo Souza Corinthians Ativo 142 / 139 40% 4 21.12.2026 -
Carlos Miguel Palmeiras Ativo 138 / 136 40% 1 21.12.2026 -
Jakub Stolarczyk Leicester City Ativo 136 / 139 40% 7 20.12.2026 -
Moritz Nicolas Borussia Mönchengladbach Ativo 133 / 128 40% 9 20.12.2026 -
Eddie Nketiah Crystal Palace Ativo 137 / 142 40% 1 20.12.2026 -
Jean-Luc Morin Tours Perdido 137 / 146 40% 2 19.12.2026 Mais informações
Robin Risser RC Lens Ativo 135 / 139 40% 2 17.12.2026 -
Pascal Loretz Luzern Ativo 123 / 134 40% 1 17.12.2026 -
Marvin Keller Young Boys Ativo 145 / 133 40% 11 16.12.2026 -
Antonio Sivera Alavés Ativo 139 / 139 40% 7 16.12.2026 -
Caoimhin Kelleher Brentford Ativo 149 / 151 40% 5 14.12.2026 -
Pedro Flamengo Ativo 138 / 143 40% 3 14.12.2026 -
Carlos Acevedo Santos Laguna Ativo 123 / 119 40% 4 14.12.2026 -
Talisca Fenerbahce Ativo 138 / 137 40% 2 14.12.2026 -
Wladimiro Falcone Lecce Ativo 143 / 139 40% 1 13.12.2026 -
Grégoire Coudert Burnley Ativo 125 / 127 40% 4 12.12.2026 -
Carlos Moreno Pachuca Ativo 122 / 128 40% 2 12.12.2026 -
Anthony Patterson Wrexham Ativo 126 / 128 40% 3 10.12.2026 -
Andreas Jungdal Westerlo Ativo 120 / 129 40% 1 10.12.2026 -
Aarón Escandell Oviedo Ativo 135 / 126 40% 9 07.12.2026 -
Axel Alderweireld KV Oostende Ativo 147 / 140 40% 1 07.12.2026 -
Robin Zentner Mainz 05 Ativo 136 / 139 40% 4 02.12.2026 -
Álvaro Valles Betis Ativo 141 / 135 40% 2 01.12.2026 -
Gregor Kobel Borussia Dortmund Ativo 162 / 174 40% 4 01.12.2026 -
Gabriel Brazão Santos Ativo 138 / 132 40% 2 01.12.2026 -
Nicolás Sumavil Platense Ativo 121 / 121 40% 1 01.12.2026 -
Dmytro Riznyk Shakhtar Ativo 132 / 148 40% 1 28.11.2026 -
Lazar Carević Famalicao Ativo 132 / 123 40% 1 28.11.2026 -
Anthony Racioppi Sion Ativo 127 / 125 40% 1 28.11.2026 -
Michael Cooper Sheffield United Ativo 124 / 124 40% 5 27.11.2026 -
Franco Petroli Olympique de Marseille Ativo 133 / 125 40% 2 27.11.2026 -
Stole Dimitrievski Valencia Ativo 138 / 142 40% 6 19.11.2026 -
Luis Malagón Club America Ativo 141 / 126 40% 9 16.11.2026 -
Felipe Zenobio Tigre Ativo 133 / 130 40% 5 08.11.2026 -
Alexis Vega Toluca Rejeitado 153 / 136 40% 2 05.11.2026 Mais informações
Tomás Marchiori Vélez Ativo 131 / 131 40% 1 04.11.2026 -
Luiz Júnior Villarreal Ativo 147 / 141 40% 2 31.10.2026 -
Yehvann Diouf OGC Nice Ativo 143 / 137 40% 1 31.10.2026 -
Jean America de Cali Ativo 122 / 124 40% 2 27.10.2026 -
Guilherme Fernandes Córdoba Ativo 125 / 131 40% 5 24.10.2026 -
Pau Víctor Braga Ativo 142 / 136 40% 1 24.10.2026 -
Carlos Vinícius Grêmio Ativo 139 / 130 40% 2 22.10.2026 -
Ionuţ Radu Celta Ativo 144 / 133 40% 3 15.10.2026 -
Christantus Uche Getafe Ativo 141 / 130 40% 1 11.10.2026 -
Mike Maignan AC Milan Ativo 166 / 164 40% 1 09.10.2026 -
Mile Svilar AS Roma Ativo 160 / 153 40% 1 03.10.2026 -
Kepa Arrizabalaga Arsenal Ativo 150 / 150 40% 2 01.10.2026 -
Daniel FC Dallas Ativo 138 / 145 40% 1 28.09.2026 -
Zack Steffen Colorado Rapids Ativo 124 / 132 40% 1 27.09.2026 -
Jonas Urbig Bayern Munich Ativo 129 / 133 40% 1 26.09.2026 -
Chris Brady Chicago Fire Ativo 121 / 131 40% 2 21.09.2026 -
Robert Sánchez Chelsea Ativo 151 / 154 40% 1 21.09.2026 -
Giorgi Mamardashvili Bayern Munich Ativo 150 / 151 40% 3 18.09.2026 -
Justin Hammel Grasshopper Ativo 119 / 110 40% 2 18.09.2026 -
Senne Lammens Manchester United Ativo 144 / 148 40% 1 17.09.2026 -
Diego Conde Villarreal Ativo 134 / 131 40% 1 15.09.2026 -
Gorka Guruzeta Athletic Bilbao Ativo 139 / 151 40% 1 31.08.2026 -
Kenny Tete Fulham Ativo 145 / 145 40% 1 25.08.2026 -
Javi Puado Espanyol Ativo 150 / 149 40% 1 25.08.2026 -
Hidemasa Morita Hull City Ativo 137 / 141 40% 1 25.08.2026 -
Ángel Correa River Plate Ativo 148 / 136 40% 1 24.08.2026 -
Petar Musa FC Dallas Ativo 137 / 131 40% 2 19.08.2026 -